Time;durP1;ratioP1;P1;durP2;ratioP2;P2;SDS_P1;SDS_P2;PMS_P1;PMS_P2;Temp;Humidity;BMP_temperature;BMP_pressure;BME280_temperature;BME280_humidity;BME280_pressure;Samples;Min_cycle;Max_cycle;Signal;HPM_P1;HPM_P2
2021/11/06 00:00:23;;;;;;;28.45;15.05;;;;;;;;;;5054479;28;20055;-65
2021/11/06 00:02:51;;;;;;;25.15;15.07;;;;;;;;;;5054587;28;20049;-64
2021/11/06 00:05:18;;;;;;;28.85;15.07;;;;;;;;;;5054583;28;20084;-63
2021/11/06 00:07:47;;;;;;;26.67;14.80;;;;;;;;;;5054472;28;20510;-64
2021/11/06 00:10:14;;;;;;;24.90;14.30;;;;;;;;;;5054080;28;20058;-63
2021/11/06 00:12:42;;;;;;;26.00;13.60;;;;;;;;;;5054388;28;20045;-64
2021/11/06 00:15:10;;;;;;;27.35;13.40;;;;;;;;;;5054365;28;20493;-64
2021/11/06 00:17:37;;;;;;;27.20;14.07;;;;;;;;;;5054734;28;20060;-64
2021/11/06 00:20:06;;;;;;;25.00;14.50;;;;;;;;;;5054431;28;20131;-64
2021/11/06 00:22:34;;;;;;;26.92;14.50;;;;;;;;;;5054102;28;20476;-64
2021/11/06 00:25:04;;;;;;;26.65;15.32;;;;;;;;;;5053919;28;20045;-64
2021/11/06 00:27:31;;;;;;;25.70;15.03;;;;;;;;;;5054138;28;20095;-63
2021/11/06 00:29:58;;;;;;;27.88;15.20;;;;;;;;;;5054108;28;20103;-64
2021/11/06 00:32:25;;;;;;;22.02;13.80;;;;;;;;;;5053940;28;20053;-63
2021/11/06 00:34:54;;;;;;;27.27;15.57;;;;;;;;;;5053910;28;20379;-64
2021/11/06 00:37:21;;;;;;;32.80;15.65;;;;;;;;;;5054314;28;20060;-64
2021/11/06 00:39:48;;;;;;;30.98;15.75;;;;;;;;;;5053911;28;20045;-64
2021/11/06 00:42:17;;;;;;;30.88;16.83;;;;;;;;;;5053437;28;20053;-63
2021/11/06 00:44:44;;;;;;;28.00;15.07;;;;;;;;;;5053760;28;20049;-64
2021/11/06 00:47:11;;;;;;;30.10;15.70;;;;;;;;;;5053741;28;20048;-63
2021/11/06 00:49:38;;;;;;;28.05;15.30;;;;;;;;;;5053771;28;20099;-64
2021/11/06 00:52:06;;;;;;;25.40;14.57;;;;;;;;;;5053641;28;20132;-62
2021/11/06 00:54:33;;;;;;;27.75;15.13;;;;;;;;;;5053434;28;20460;-62
2021/11/06 00:57:00;;;;;;;101.90;43.78;;;;;;;;;;5053586;28;20175;-64
2021/11/06 00:59:28;;;;;;;35.28;18.83;;;;;;;;;;5053749;28;20391;-64
2021/11/06 01:01:55;;;;;;;31.85;16.65;;;;;;;;;;5053693;28;20389;-63
2021/11/06 01:04:22;;;;;;;42.03;19.33;;;;;;;;;;5053438;28;20045;-64
2021/11/06 01:06:49;;;;;;;28.17;15.50;;;;;;;;;;5053108;28;20405;-64
2021/11/06 01:09:16;;;;;;;29.30;15.38;;;;;;;;;;5053240;28;20049;-64
2021/11/06 01:11:43;;;;;;;30.33;16.30;;;;;;;;;;5053244;28;20063;-64
2021/11/06 01:14:10;;;;;;;26.23;14.63;;;;;;;;;;5053216;28;20056;-64
2021/11/06 01:16:39;;;;;;;26.05;16.10;;;;;;;;;;5053025;28;20486;-64
2021/11/06 01:19:06;;;;;;;30.80;15.88;;;;;;;;;;5053061;28;20053;-64
2021/11/06 01:21:33;;;;;;;28.08;14.55;;;;;;;;;;5052984;28;20057;-63
2021/11/06 01:24:00;;;;;;;25.80;14.50;;;;;;;;;;5052917;28;20052;-64
2021/11/06 01:26:27;;;;;;;25.80;14.85;;;;;;;;;;5052729;28;20056;-63
2021/11/06 01:28:54;;;;;;;28.25;15.43;;;;;;;;;;5052842;28;20571;-64
2021/11/06 01:31:21;;;;;;;28.05;14.95;;;;;;;;;;5052983;28;20051;-64
2021/11/06 01:33:49;;;;;;;26.90;14.02;;;;;;;;;;5053027;28;20059;-63
2021/11/06 01:36:17;;;;;;;24.88;14.77;;;;;;;;;;5052493;28;20084;-63
2021/11/06 01:38:44;;;;;;;23.98;13.50;;;;;;;;;;5052656;28;20049;-64
2021/11/06 01:41:11;;;;;;;27.45;14.70;;;;;;;;;;5052864;28;20511;-63
2021/11/06 01:43:38;;;;;;;24.27;13.68;;;;;;;;;;5052784;28;20059;-64
2021/11/06 01:46:08;;;;;;;25.95;13.85;;;;;;;;;;5052722;28;20088;-64
2021/11/06 01:48:35;;;;;;;27.10;15.07;;;;;;;;;;5052683;28;20053;-64
2021/11/06 01:51:05;;;;;;;34.15;15.30;;;;;;;;;;5052541;28;20088;-64
2021/11/06 01:53:33;;;;;;;30.50;15.80;;;;;;;;;;5052739;28;20059;-64
2021/11/06 01:56:00;;;;;;;30.92;16.85;;;;;;;;;;5052459;28;20049;-64
2021/11/06 01:58:30;;;;;;;35.22;17.17;;;;;;;;;;5052415;28;20136;-64
2021/11/06 02:00:59;;;;;;;27.17;15.07;;;;;;;;;;5052690;28;20060;-64
2021/11/06 02:03:26;;;;;;;28.55;14.10;;;;;;;;;;5052366;28;20064;-64
2021/11/06 02:05:54;;;;;;;30.65;15.80;;;;;;;;;;5052259;28;20068;-63
2021/11/06 02:08:22;;;;;;;28.50;14.95;;;;;;;;;;5052242;28;20053;-64
2021/11/06 02:10:49;;;;;;;30.67;16.35;;;;;;;;;;5052412;28;20528;-63
2021/11/06 02:13:17;;;;;;;27.85;15.88;;;;;;;;;;5052284;28;20053;-64
2021/11/06 02:15:44;;;;;;;29.65;15.20;;;;;;;;;;5052063;28;20052;-63
2021/11/06 02:18:11;;;;;;;31.52;15.85;;;;;;;;;;5052021;28;20477;-64
2021/11/06 02:21:34;;;;;;;27.50;15.75;;;;;;;;;;5052076;28;20067;-64
2021/11/06 02:24:02;;;;;;;26.55;15.00;;;;;;;;;;5050750;28;20061;-64
2021/11/06 02:26:29;;;;;;;26.35;14.68;;;;;;;;;;5052070;28;20055;-64
2021/11/06 02:28:59;;;;;;;29.27;16.33;;;;;;;;;;5052098;28;20486;-64
2021/11/06 02:31:26;;;;;;;25.27;13.70;;;;;;;;;;5052130;28;20579;-64
2021/11/06 02:33:54;;;;;;;26.73;14.77;;;;;;;;;;5051893;28;20522;-63
2021/11/06 02:36:21;;;;;;;25.33;14.98;;;;;;;;;;5051690;28;20049;-63
2021/11/06 02:38:49;;;;;;;23.17;13.63;;;;;;;;;;5052057;28;20048;-63
2021/11/06 02:41:18;;;;;;;28.85;14.98;;;;;;;;;;5051953;28;20064;-64
2021/11/06 02:43:45;;;;;;;25.88;14.38;;;;;;;;;;5051834;28;20057;-63
2021/11/06 02:46:12;;;;;;;27.80;16.23;;;;;;;;;;5051727;28;20502;-64
2021/11/06 02:48:39;;;;;;;27.13;14.07;;;;;;;;;;5051775;28;20049;-64
2021/11/06 02:51:06;;;;;;;29.77;15.73;;;;;;;;;;5051755;28;20108;-64
2021/11/06 02:53:33;;;;;;;31.35;17.15;;;;;;;;;;5051728;28;20082;-63
2021/11/06 02:56:00;;;;;;;31.45;16.75;;;;;;;;;;5051567;28;20048;-64
2021/11/06 02:58:29;;;;;;;27.45;15.23;;;;;;;;;;5051642;28;20049;-63
2021/11/06 03:00:57;;;;;;;28.25;16.13;;;;;;;;;;5051566;28;20143;-64
2021/11/06 03:03:24;;;;;;;29.10;15.50;;;;;;;;;;5051741;28;20064;-64
2021/11/06 03:05:51;;;;;;;29.52;15.82;;;;;;;;;;5051715;28;20466;-64
2021/11/06 03:08:18;;;;;;;30.88;15.50;;;;;;;;;;5051769;28;20045;-64
2021/11/06 03:10:45;;;;;;;28.95;15.30;;;;;;;;;;5051738;28;20045;-64
2021/11/06 03:13:14;;;;;;;28.30;15.50;;;;;;;;;;5051733;28;20049;-64
2021/11/06 03:15:42;;;;;;;29.27;14.57;;;;;;;;;;5051409;28;20140;-64
2021/11/06 03:18:10;;;;;;;25.80;15.10;;;;;;;;;;5051501;28;20413;-64
2021/11/06 03:20:36;;;;;;;27.08;15.32;;;;;;;;;;5051515;28;20488;-64
2021/11/06 03:23:03;;;;;;;28.85;15.82;;;;;;;;;;5051503;28;20063;-64
2021/11/06 03:25:31;;;;;;;24.42;14.80;;;;;;;;;;5051143;28;20048;-63
2021/11/06 03:27:58;;;;;;;26.60;13.98;;;;;;;;;;5051520;28;20057;-64
2021/11/06 03:30:26;;;;;;;29.42;15.98;;;;;;;;;;5051221;28;20053;-64
2021/11/06 03:32:54;;;;;;;23.05;13.55;;;;;;;;;;5051408;28;20052;-64
2021/11/06 03:35:22;;;;;;;22.92;14.85;;;;;;;;;;5051412;28;20044;-64
2021/11/06 03:37:50;;;;;;;28.38;15.90;;;;;;;;;;5051502;28;20057;-64
2021/11/06 03:40:18;;;;;;;31.35;16.17;;;;;;;;;;5051340;28;20059;-64
2021/11/06 03:42:46;;;;;;;31.17;16.42;;;;;;;;;;5051435;28;20120;-64
2021/11/06 03:45:13;;;;;;;28.05;15.40;;;;;;;;;;5051185;28;20052;-63
2021/11/06 03:47:41;;;;;;;28.33;15.80;;;;;;;;;;5054993;28;20051;-64
2021/11/06 03:50:11;;;;;;;30.10;15.95;;;;;;;;;;5054602;28;20049;-64
2021/11/06 03:52:38;;;;;;;27.35;15.18;;;;;;;;;;5054949;28;20049;-64
2021/11/06 03:55:08;;;;;;;28.05;15.10;;;;;;;;;;5054587;28;20045;-64
2021/11/06 03:57:35;;;;;;;28.48;14.45;;;;;;;;;;5055004;28;20429;-64
2021/11/06 04:00:03;;;;;;;23.65;13.90;;;;;;;;;;5054737;28;20244;-64
2021/11/06 04:02:30;;;;;;;25.42;14.07;;;;;;;;;;5054494;28;20048;-64
2021/11/06 04:04:57;;;;;;;24.90;14.45;;;;;;;;;;5054245;28;20068;-63
2021/11/06 04:07:26;;;;;;;23.30;13.43;;;;;;;;;;5058329;22;20521;-64
2021/11/06 04:09:53;;;;;;;23.85;15.05;;;;;;;;;;5033846;28;20464;-64
2021/11/06 04:12:20;;;;;;;27.13;14.25;;;;;;;;;;5034678;28;20414;-61
2021/11/06 04:14:48;;;;;;;27.30;14.57;;;;;;;;;;5034066;28;20045;-61
2021/11/06 04:17:15;;;;;;;23.60;14.15;;;;;;;;;;5034347;28;20506;-62
2021/11/06 04:19:42;;;;;;;26.00;14.98;;;;;;;;;;5034261;28;20055;-61
2021/11/06 04:22:09;;;;;;;25.88;13.82;;;;;;;;;;5034000;28;20159;-61
2021/11/06 04:24:39;;;;;;;21.30;12.30;;;;;;;;;;5033753;28;20046;-62
2021/11/06 04:27:07;;;;;;;25.87;14.40;;;;;;;;;;5034611;28;20195;-62
2021/11/06 04:29:36;;;;;;;23.67;13.63;;;;;;;;;;5034072;28;20053;-62
2021/11/06 04:32:04;;;;;;;24.58;14.02;;;;;;;;;;5033924;28;20050;-62
2021/11/06 04:34:31;;;;;;;26.83;15.27;;;;;;;;;;5033929;28;20494;-61
2021/11/06 04:36:58;;;;;;;25.33;14.23;;;;;;;;;;5033923;28;20042;-62
2021/11/06 04:39:25;;;;;;;28.48;15.98;;;;;;;;;;5033634;28;20171;-62
2021/11/06 04:41:53;;;;;;;25.95;15.60;;;;;;;;;;5033752;28;20418;-62
2021/11/06 04:44:21;;;;;;;27.00;15.48;;;;;;;;;;5033868;28;20553;-62
2021/11/06 04:46:49;;;;;;;25.80;14.80;;;;;;;;;;5033838;28;20049;-62
2021/11/06 04:49:17;;;;;;;25.75;14.65;;;;;;;;;;5033687;28;20099;-62
2021/11/06 04:51:44;;;;;;;22.95;13.10;;;;;;;;;;5033555;28;20041;-63
2021/11/06 04:54:11;;;;;;;22.63;12.40;;;;;;;;;;5033504;28;20096;-63
2021/11/06 04:56:38;;;;;;;23.85;14.48;;;;;;;;;;5033585;28;20055;-62
2021/11/06 04:59:08;;;;;;;24.17;14.70;;;;;;;;;;5033638;28;20042;-61
2021/11/06 05:01:35;;;;;;;23.67;14.15;;;;;;;;;;5033630;28;20148;-62
2021/11/06 05:04:03;;;;;;;22.85;13.48;;;;;;;;;;5033370;28;20045;-63
2021/11/06 05:06:31;;;;;;;26.17;14.27;;;;;;;;;;5033003;28;20046;-63
2021/11/06 05:08:58;;;;;;;22.58;13.98;;;;;;;;;;5033317;28;20060;-62
2021/11/06 05:11:25;;;;;;;26.58;14.93;;;;;;;;;;5033375;28;20052;-64
2021/11/06 05:13:52;;;;;;;24.92;13.75;;;;;;;;;;5033504;28;20046;-63
2021/11/06 05:16:20;;;;;;;24.63;14.05;;;;;;;;;;5033071;28;20045;-62
2021/11/06 05:18:47;;;;;;;24.35;14.90;;;;;;;;;;5032973;28;20053;-61
2021/11/06 05:21:14;;;;;;;26.10;14.43;;;;;;;;;;5033087;28;20055;-61
2021/11/06 05:23:41;;;;;;;24.98;14.00;;;;;;;;;;5033068;28;20139;-61
2021/11/06 05:26:08;;;;;;;23.23;13.07;;;;;;;;;;5032906;28;20055;-61
2021/11/06 05:28:35;;;;;;;28.02;14.15;;;;;;;;;;5033024;28;20087;-62
2021/11/06 05:31:02;;;;;;;23.23;13.68;;;;;;;;;;5032970;28;20045;-62
2021/11/06 05:33:31;;;;;;;23.40;13.85;;;;;;;;;;5032845;28;20087;-62
2021/11/06 05:35:59;;;;;;;23.30;14.07;;;;;;;;;;5032752;28;20091;-63
2021/11/06 05:38:26;;;;;;;23.83;14.80;;;;;;;;;;5033184;28;20498;-63
2021/11/06 05:40:53;;;;;;;25.73;15.10;;;;;;;;;;5032975;28;20052;-63
2021/11/06 05:43:20;;;;;;;25.35;14.07;;;;;;;;;;5032745;28;20080;-63
2021/11/06 05:45:48;;;;;;;29.25;15.15;;;;;;;;;;5032404;28;20418;-61
2021/11/06 05:48:15;;;;;;;24.55;14.52;;;;;;;;;;5032594;28;20041;-62
2021/11/06 05:50:44;;;;;;;24.65;14.10;;;;;;;;;;5032502;28;20045;-63
2021/11/06 05:53:11;;;;;;;23.73;12.63;;;;;;;;;;5032682;28;20057;-61
2021/11/06 05:55:38;;;;;;;22.08;13.77;;;;;;;;;;5032310;28;20136;-63
2021/11/06 05:58:05;;;;;;;30.38;14.50;;;;;;;;;;5032629;28;20053;-62
2021/11/06 06:00:32;;;;;;;27.23;16.95;;;;;;;;;;5032469;28;20093;-63
2021/11/06 06:03:00;;;;;;;27.42;15.45;;;;;;;;;;5032842;28;20049;-62
2021/11/06 06:05:27;;;;;;;28.08;16.17;;;;;;;;;;5032151;28;20498;-63
2021/11/06 06:07:55;;;;;;;26.83;16.13;;;;;;;;;;5032198;28;20426;-61
2021/11/06 06:10:23;;;;;;;21.75;13.88;;;;;;;;;;5032044;28;20041;-61
2021/11/06 06:12:52;;;;;;;30.23;15.40;;;;;;;;;;5032241;28;20099;-62
2021/11/06 06:15:20;;;;;;;25.88;16.42;;;;;;;;;;5032137;28;20050;-62
2021/11/06 06:17:48;;;;;;;26.02;15.60;;;;;;;;;;5032184;28;20049;-62
2021/11/06 06:20:15;;;;;;;25.65;15.52;;;;;;;;;;5032211;28;20041;-62
2021/11/06 06:22:43;;;;;;;25.50;15.27;;;;;;;;;;5032264;28;20418;-62
2021/11/06 06:25:13;;;;;;;31.15;16.85;;;;;;;;;;5031953;28;20053;-63
2021/11/06 06:27:41;;;;;;;28.35;16.30;;;;;;;;;;5032365;28;20064;-62
2021/11/06 06:30:11;;;;;;;27.00;15.63;;;;;;;;;;5032024;28;20498;-61
2021/11/06 06:32:39;;;;;;;25.85;15.35;;;;;;;;;;5031957;28;20049;-62
2021/11/06 06:35:07;;;;;;;28.75;15.40;;;;;;;;;;5031612;28;20053;-62
2021/11/06 06:37:34;;;;;;;25.20;15.10;;;;;;;;;;5031684;28;20490;-62
2021/11/06 06:40:01;;;;;;;23.45;13.10;;;;;;;;;;5032497;28;20486;-64
2021/11/06 06:42:30;;;;;;;27.42;15.43;;;;;;;;;;5031624;28;20053;-63
2021/11/06 06:44:57;;;;;;;27.92;14.85;;;;;;;;;;5031363;28;20076;-60
2021/11/06 06:47:24;;;;;;;29.67;15.07;;;;;;;;;;5031460;28;20475;-62
2021/11/06 06:49:52;;;;;;;30.27;16.05;;;;;;;;;;5031716;28;20586;-62
2021/11/06 06:52:19;;;;;;;27.20;14.85;;;;;;;;;;5031615;28;20103;-63
2021/11/06 06:54:46;;;;;;;29.05;15.55;;;;;;;;;;5031772;28;20418;-63
2021/11/06 06:57:13;;;;;;;28.10;15.70;;;;;;;;;;5031954;28;20052;-64
2021/11/06 06:59:42;;;;;;;29.77;15.52;;;;;;;;;;5031920;28;20056;-63
2021/11/06 07:02:09;;;;;;;26.60;14.57;;;;;;;;;;5031568;28;20045;-63
2021/11/06 07:04:36;;;;;;;25.33;13.88;;;;;;;;;;5031506;28;20129;-63
2021/11/06 07:07:03;;;;;;;26.42;13.63;;;;;;;;;;5031773;28;20465;-62
2021/11/06 07:09:30;;;;;;;27.10;14.63;;;;;;;;;;5031621;28;20041;-62
2021/11/06 07:11:57;;;;;;;28.27;15.48;;;;;;;;;;5031527;28;20046;-63
2021/11/06 07:14:24;;;;;;;28.73;15.63;;;;;;;;;;5031835;28;20418;-63
2021/11/06 07:16:53;;;;;;;25.08;14.25;;;;;;;;;;5031534;28;20491;-63
2021/11/06 07:19:21;;;;;;;24.38;14.10;;;;;;;;;;5031705;28;20045;-64
2021/11/06 07:21:48;;;;;;;26.45;15.07;;;;;;;;;;5033990;28;20449;-61
2021/11/06 07:24:15;;;;;;;29.30;15.70;;;;;;;;;;5035334;28;20083;-63
2021/11/06 07:26:42;;;;;;;26.75;15.60;;;;;;;;;;5035126;28;20053;-63
2021/11/06 07:29:09;;;;;;;30.73;15.95;;;;;;;;;;5035293;28;20042;-63
2021/11/06 07:31:36;;;;;;;30.92;17.17;;;;;;;;;;5035154;28;20048;-63
2021/11/06 07:34:05;;;;;;;30.67;16.52;;;;;;;;;;5035506;28;20049;-62
2021/11/06 07:36:32;;;;;;;31.73;17.20;;;;;;;;;;5035688;28;20426;-64
2021/11/06 07:39:00;;;;;;;30.88;16.10;;;;;;;;;;5035432;28;20053;-64
2021/11/06 07:41:27;;;;;;;27.55;16.42;;;;;;;;;;5035072;28;20414;-64
2021/11/06 07:43:54;;;;;;;28.45;16.42;;;;;;;;;;5035295;28;20509;-62
2021/11/06 07:46:22;;;;;;;38.67;21.70;;;;;;;;;;5034568;28;20049;-62
2021/11/06 07:48:50;;;;;;;51.58;26.95;;;;;;;;;;5035143;28;20423;-62
2021/11/06 07:51:18;;;;;;;46.83;24.17;;;;;;;;;;5034934;28;20140;-61
2021/11/06 07:53:46;;;;;;;34.53;20.52;;;;;;;;;;5034959;28;20494;-62
2021/11/06 07:56:14;;;;;;;37.67;21.45;;;;;;;;;;5034578;28;20052;-62
2021/11/06 07:58:41;;;;;;;36.22;21.13;;;;;;;;;;5034747;28;20061;-61
2021/11/06 08:01:08;;;;;;;34.10;19.10;;;;;;;;;;5034658;28;20132;-60
2021/11/06 08:03:36;;;;;;;31.15;17.67;;;;;;;;;;5034637;28;20049;-61
2021/11/06 08:06:03;;;;;;;34.08;18.73;;;;;;;;;;5034588;28;20060;-62
2021/11/06 08:08:32;;;;;;;33.10;18.05;;;;;;;;;;5034639;28;20049;-60
2021/11/06 08:10:59;;;;;;;36.88;19.73;;;;;;;;;;5034369;28;20052;-62
2021/11/06 08:13:28;;;;;;;42.63;24.27;;;;;;;;;;5034505;28;20154;-60
2021/11/06 08:15:55;;;;;;;50.20;26.63;;;;;;;;;;5034510;28;20045;-61
2021/11/06 08:18:24;;;;;;;36.20;20.85;;;;;;;;;;5036729;28;20061;-61
2021/11/06 08:20:52;;;;;;;41.38;21.15;;;;;;;;;;5033618;28;20056;-62
2021/11/06 08:23:18;;;;;;;51.22;27.35;;;;;;;;;;5035092;28;20056;-60
2021/11/06 08:25:47;;;;;;;69.63;37.67;;;;;;;;;;5034340;28;20060;-60
2021/11/06 08:28:15;;;;;;;38.55;21.25;;;;;;;;;;5034670;28;20053;-58
2021/11/06 08:30:42;;;;;;;38.45;20.13;;;;;;;;;;5034379;28;20045;-61
2021/11/06 08:33:10;;;;;;;36.00;18.42;;;;;;;;;;5034122;28;20049;-61
2021/11/06 08:35:37;;;;;;;36.20;19.77;;;;;;;;;;5034139;28;20049;-61
2021/11/06 08:38:05;;;;;;;36.13;19.05;;;;;;;;;;5034232;28;20057;-60
2021/11/06 08:40:33;;;;;;;39.92;20.17;;;;;;;;;;5034145;28;20159;-59
2021/11/06 08:43:02;;;;;;;34.97;17.95;;;;;;;;;;5034171;28;20530;-59
2021/11/06 08:45:29;;;;;;;39.83;19.00;;;;;;;;;;5034594;28;20499;-57
2021/11/06 08:47:56;;;;;;;41.13;21.35;;;;;;;;;;5034604;28;20046;-60
2021/11/06 08:50:27;;;;;;;51.55;26.77;;;;;;;;;;5034197;28;20491;-59
2021/11/06 08:52:55;;;;;;;;;;;;;;;;;;5034235;28;20495;-61
2021/11/06 08:55:22;;;;;;;34.45;17.13;;;;;;;;;;5033821;28;19921;-61
2021/11/06 08:57:50;;;;;;;36.25;17.42;;;;;;;;;;5033914;28;20053;-60
2021/11/06 09:00:26;;;;;;;33.88;18.00;;;;;;;;;;5033725;28;20414;-62
2021/11/06 09:02:54;;;;;;;35.80;18.23;;;;;;;;;;5033769;28;20049;-61
2021/11/06 09:05:21;;;;;;;36.25;19.25;;;;;;;;;;5033548;28;20479;-60
2021/11/06 09:07:49;;;;;;;40.17;19.00;;;;;;;;;;5033260;28;20080;-60
2021/11/06 09:10:19;;;;;;;39.88;19.95;;;;;;;;;;5033761;28;20378;-61
2021/11/06 09:12:47;;;;;;;37.83;18.38;;;;;;;;;;5033347;28;20052;-61
2021/11/06 09:15:15;;;;;;;60.58;30.23;;;;;;;;;;5033279;28;20046;-60
2021/11/06 09:17:43;;;;;;;43.92;21.95;;;;;;;;;;5033148;28;20045;-60
2021/11/06 09:20:11;;;;;;;32.92;18.52;;;;;;;;;;5033391;28;20052;-61
2021/11/06 09:22:39;;;;;;;34.80;18.27;;;;;;;;;;5033308;28;20045;-59
2021/11/06 09:25:09;;;;;;;38.85;16.85;;;;;;;;;;5033536;28;20052;-60
2021/11/06 09:27:37;;;;;;;38.90;18.13;;;;;;;;;;5033311;28;20507;-60
2021/11/06 09:30:06;;;;;;;43.55;19.33;;;;;;;;;;5033253;28;20064;-61
2021/11/06 09:32:33;;;;;;;43.08;19.63;;;;;;;;;;5032905;28;20057;-61
2021/11/06 09:35:02;;;;;;;52.67;21.40;;;;;;;;;;5032593;28;20049;-61
2021/11/06 09:37:30;;;;;;;46.47;21.80;;;;;;;;;;5033204;28;20041;-61
2021/11/06 09:39:58;;;;;;;116.20;38.17;;;;;;;;;;5033177;28;20045;-61
2021/11/06 09:42:25;;;;;;;95.60;31.25;;;;;;;;;;5032853;28;20041;-60
2021/11/06 09:44:52;;;;;;;83.93;31.45;;;;;;;;;;5031815;28;20057;-61
2021/11/06 09:47:21;;;;;;;71.90;29.80;;;;;;;;;;5032884;28;20052;-61
2021/11/06 09:49:49;;;;;;;58.47;24.63;;;;;;;;;;5032955;28;20057;-61
2021/11/06 09:52:19;;;;;;;46.90;21.35;;;;;;;;;;5032695;28;20046;-61
2021/11/06 09:54:46;;;;;;;49.17;22.17;;;;;;;;;;5032837;28;20453;-60
2021/11/06 09:57:14;;;;;;;47.97;20.30;;;;;;;;;;5032512;28;20053;-61
2021/11/06 09:59:41;;;;;;;48.00;20.13;;;;;;;;;;5033005;28;20099;-78
2021/11/06 10:02:09;;;;;;;48.45;19.42;;;;;;;;;;5033589;28;20041;-71
2021/11/06 10:04:36;;;;;;;46.28;19.58;;;;;;;;;;5032560;28;20053;-69
2021/11/06 10:07:18;;;;;;;40.40;18.60;;;;;;;;;;5033735;28;20045;-68
2021/11/06 10:09:55;;;;;;;47.80;20.92;;;;;;;;;;5032667;28;20045;-68
2021/11/06 10:12:23;;;;;;;44.10;19.02;;;;;;;;;;5066560;22;20414;-84
2021/11/06 10:15:02;;;;;;;46.95;19.80;;;;;;;;;;5057636;28;20053;-82
2021/11/06 10:17:32;;;;;;;46.38;18.80;;;;;;;;;;5057847;28;20041;-81
2021/11/06 10:19:59;;;;;;;41.25;18.85;;;;;;;;;;5057924;28;20088;-81
2021/11/06 10:22:27;;;;;;;38.58;17.55;;;;;;;;;;5056606;28;20099;-79
2021/11/06 10:24:57;;;;;;;40.75;17.98;;;;;;;;;;5057308;28;20044;-79
2021/11/06 10:27:27;;;;;;;34.93;16.80;;;;;;;;;;5057353;28;20049;-79
2021/11/06 10:30:04;;;;;;;40.78;18.60;;;;;;;;;;5057529;28;20278;-79
2021/11/06 10:32:31;;;;;;;39.00;17.48;;;;;;;;;;5057834;28;20053;-79
2021/11/06 10:35:12;;;;;;;36.17;17.15;;;;;;;;;;5059150;28;20095;-79
2021/11/06 10:37:41;;;;;;;31.73;14.85;;;;;;;;;;5058540;28;20053;-81
2021/11/06 10:40:14;;;;;;;28.50;13.93;;;;;;;;;;5060420;28;20060;-85
2021/11/06 10:43:00;;;;;;;27.23;12.40;;;;;;;;;;5061388;28;20044;-83
2021/11/06 10:45:32;;;;;;;24.40;11.75;;;;;;;;;;5069945;28;20064;-87
2021/11/06 10:48:05;;;;;;;24.88;13.48;;;;;;;;;;5067515;28;20045;-86
2021/11/06 10:50:54;;;;;;;23.50;12.20;;;;;;;;;;5062398;28;20057;-84
2021/11/06 10:53:44;;;;;;;22.55;11.13;;;;;;;;;;5060532;28;20107;-87
2021/11/06 10:56:23;;;;;;;21.42;10.02;;;;;;;;;;5062504;28;20057;-82
2021/11/06 10:58:52;;;;;;;22.48;11.65;;;;;;;;;;5064495;28;20063;-86
2021/11/06 11:01:23;;;;;;;30.33;12.43;;;;;;;;;;5064010;28;20053;-83
2021/11/06 11:03:50;;;;;;;;;;;;;;;;;;5064843;28;20052;-79
2021/11/06 11:06:18;;;;;;;26.75;12.73;;;;;;;;;;5062163;28;20348;-83
2021/11/06 11:08:48;;;;;;;21.00;11.50;;;;;;;;;;5062704;28;20049;-80
2021/11/06 11:11:18;;;;;;;24.92;12.95;;;;;;;;;;5061749;28;20057;-80
2021/11/06 11:13:50;;;;;;;23.08;11.45;;;;;;;;;;5064824;28;20059;-81
2021/11/06 11:16:18;;;;;;;22.60;12.07;;;;;;;;;;5061964;28;20112;-80
2021/11/06 11:18:46;;;;;;;21.75;10.90;;;;;;;;;;5061291;28;20096;-81
2021/11/06 11:21:18;;;;;;;20.17;9.90;;;;;;;;;;5061830;28;20057;-80
2021/11/06 11:23:49;;;;;;;21.88;10.88;;;;;;;;;;5060979;28;20052;-80
2021/11/06 11:26:16;;;;;;;;;;;;;;;;;;5061070;28;20079;-80
2021/11/06 11:28:43;;;;;;;20.13;9.68;;;;;;;;;;5062127;28;19921;-80
2021/11/06 11:31:11;;;;;;;24.17;11.18;;;;;;;;;;5061858;28;20049;-81
2021/11/06 11:33:39;;;;;;;22.38;11.38;;;;;;;;;;5059613;28;20049;-80
2021/11/06 11:36:09;;;;;;;18.40;9.82;;;;;;;;;;5060135;28;20053;-80
2021/11/06 11:38:38;;;;;;;20.15;10.82;;;;;;;;;;5059663;28;20455;-81
2021/11/06 11:41:47;;;;;;;22.33;11.65;;;;;;;;;;5061288;28;20056;-79
2021/11/06 11:44:53;;;;;;;20.95;10.48;;;;;;;;;;5062417;28;20063;-79
2021/11/06 11:47:25;;;;;;;20.48;9.98;;;;;;;;;;5041989;28;20056;-79
2021/11/06 11:49:54;;;;;;;19.23;9.75;;;;;;;;;;5067258;28;20076;-80
2021/11/06 11:52:26;;;;;;;20.20;9.88;;;;;;;;;;5066993;28;20041;-79
2021/11/06 11:54:58;;;;;;;23.77;12.20;;;;;;;;;;5062387;28;20045;-80
2021/11/06 11:57:26;;;;;;;23.63;11.27;;;;;;;;;;5061899;28;20069;-79
2021/11/06 11:59:54;;;;;;;18.88;9.77;;;;;;;;;;5068089;28;20045;-80
2021/11/06 12:02:23;;;;;;;23.17;10.75;;;;;;;;;;5067344;28;20094;-80
2021/11/06 12:05:35;;;;;;;22.85;10.00;;;;;;;;;;5062306;28;20094;-81
2021/11/06 12:08:30;;;;;;;20.85;10.15;;;;;;;;;;5061264;28;20053;-81
2021/11/06 12:11:13;;;;;;;18.90;8.98;;;;;;;;;;5070155;28;20045;-81
2021/11/06 12:13:48;;;;;;;20.52;9.98;;;;;;;;;;5072733;28;20060;-80
2021/11/06 12:16:16;;;;;;;19.73;9.93;;;;;;;;;;5064217;28;20055;-78
2021/11/06 12:18:57;;;;;;;22.33;11.13;;;;;;;;;;5060051;28;20103;-81
2021/11/06 12:21:31;;;;;;;23.65;11.85;;;;;;;;;;5061814;28;20052;-80
2021/11/06 12:24:00;;;;;;;23.65;12.80;;;;;;;;;;5060786;28;20055;-80
2021/11/06 12:26:29;;;;;;;22.42;10.38;;;;;;;;;;5060202;28;20045;-79
2021/11/06 12:29:28;;;;;;;19.13;10.38;;;;;;;;;;5060310;28;20041;-80
2021/11/06 12:31:59;;;;;;;19.77;10.35;;;;;;;;;;5060111;28;20053;-82
2021/11/06 12:34:35;;;;;;;;;;;;;;;;;;5061658;28;20488;-79
2021/11/06 12:37:02;;;;;;;15.82;8.63;;;;;;;;;;5064741;28;19921;-80
2021/11/06 12:39:51;;;;;;;15.50;8.35;;;;;;;;;;5061156;28;20049;-79
2021/11/06 12:42:21;;;;;;;17.80;9.13;;;;;;;;;;5064823;28;20107;-81
2021/11/06 12:44:52;;;;;;;19.05;8.80;;;;;;;;;;5063794;28;20107;-80
2021/11/06 12:47:20;;;;;;;16.90;8.77;;;;;;;;;;5060430;28;20060;-81
2021/11/06 12:49:48;;;;;;;17.50;9.45;;;;;;;;;;5059908;28;20077;-79
2021/11/06 12:52:16;;;;;;;17.20;9.30;;;;;;;;;;5059286;28;20091;-81
2021/11/06 12:54:44;;;;;;;17.63;8.90;;;;;;;;;;5059711;28;20060;-82
2021/11/06 12:57:11;;;;;;;17.88;8.55;;;;;;;;;;5058251;28;20060;-80
2021/11/06 12:59:46;;;;;;;20.90;10.57;;;;;;;;;;5058009;28;20061;-81
2021/11/06 13:02:15;;;;;;;17.17;8.75;;;;;;;;;;5058457;28;20045;-80
2021/11/06 13:04:42;;;;;;;14.55;7.35;;;;;;;;;;5058635;28;20486;-81
2021/11/06 13:07:09;;;;;;;19.55;9.95;;;;;;;;;;5058889;28;20056;-81
2021/11/06 13:09:38;;;;;;;20.75;11.27;;;;;;;;;;5057743;28;20052;-81
2021/11/06 13:12:08;;;;;;;17.70;8.77;;;;;;;;;;5059933;28;20044;-81
2021/11/06 13:14:45;;;;;;;19.05;9.13;;;;;;;;;;5057963;28;20084;-79
2021/11/06 13:17:15;;;;;;;14.40;8.00;;;;;;;;;;5058533;28;20041;-80
2021/11/06 13:19:45;;;;;;;27.48;13.98;;;;;;;;;;5057108;28;20396;-80
2021/11/06 13:22:15;;;;;;;22.63;12.80;;;;;;;;;;5059543;28;20049;-80
2021/11/06 13:24:54;;;;;;;19.25;10.55;;;;;;;;;;5058543;28;20049;-80
2021/11/06 13:27:52;;;;;;;17.45;10.25;;;;;;;;;;5063428;28;20522;-80
2021/11/06 13:30:37;;;;;;;18.40;9.45;;;;;;;;;;5062046;28;20056;-79
2021/11/06 13:33:11;;;;;;;29.92;16.05;;;;;;;;;;5058105;28;20518;-79
2021/11/06 13:35:40;;;;;;;26.60;14.70;;;;;;;;;;5061757;28;20059;-80
2021/11/06 13:38:39;;;;;;;19.58;10.60;;;;;;;;;;5060603;28;20053;-80
2021/11/06 13:41:20;;;;;;;21.70;10.82;;;;;;;;;;5057865;28;20067;-80
2021/11/06 13:43:50;;;;;;;22.33;11.90;;;;;;;;;;5058184;28;20049;-79
2021/11/06 13:46:25;;;;;;;20.10;12.07;;;;;;;;;;5059814;28;20041;-81
2021/11/06 13:49:13;;;;;;;21.55;11.43;;;;;;;;;;5064803;28;20075;-80
2021/11/06 13:51:49;;;;;;;21.42;11.10;;;;;;;;;;5064431;28;20052;-80
2021/11/06 13:54:24;;;;;;;17.50;11.18;;;;;;;;;;5065250;28;20056;-79
2021/11/06 13:57:06;;;;;;;24.52;12.80;;;;;;;;;;5064006;28;20433;-80
2021/11/06 13:59:40;;;;;;;22.75;11.57;;;;;;;;;;5065936;28;20060;-81
2021/11/06 14:02:09;;;;;;;21.63;11.82;;;;;;;;;;5064752;28;20045;-79
2021/11/06 14:04:42;;;;;;;22.45;12.25;;;;;;;;;;5063829;28;20076;-79
2021/11/06 14:07:15;;;;;;;20.50;11.38;;;;;;;;;;5064256;28;20049;-79
2021/11/06 14:09:55;;;;;;;19.27;10.95;;;;;;;;;;5065206;28;20049;-79
2021/11/06 14:12:38;;;;;;;19.88;11.43;;;;;;;;;;5064613;28;20120;-79
2021/11/06 14:15:07;;;;;;;23.13;12.63;;;;;;;;;;5063559;28;20475;-80
2021/11/06 14:17:48;;;;;;;24.02;11.88;;;;;;;;;;5060742;28;20056;-80
2021/11/06 14:20:20;;;;;;;20.40;11.57;;;;;;;;;;5060979;28;20069;-79
2021/11/06 14:22:48;;;;;;;19.42;11.27;;;;;;;;;;5070143;28;20052;-80
2021/11/06 14:25:27;;;;;;;21.65;11.55;;;;;;;;;;5064423;28;20411;-80
2021/11/06 14:28:10;;;;;;;18.58;11.20;;;;;;;;;;5061538;28;20136;-80
2021/11/06 14:30:52;;;;;;;20.40;11.27;;;;;;;;;;5060097;28;20110;-79
2021/11/06 14:33:28;;;;;;;26.35;13.15;;;;;;;;;;5061087;28;20492;-81